TimeCET,TemperatureF,Dew PointF,Humidity,Sea Level PressureIn,VisibilityMPH,Wind Direction,Wind SpeedMPH,Gust SpeedMPH,PrecipitationIn,Events,Conditions,WindDirDegrees,DateUTC
12:20 AM,39.2,39.2,100,30.04,0.1,NE,3.5,-,N/A,Fog,Fog,40,2012-11-18 23:20:00
12:50 AM,41.0,39.2,93,30.04,0.2,East,4.6,-,N/A,Fog,Fog,100,2012-11-18 23:50:00
1:00 AM,41,40,92,30.06,0,East,4.5,,,Fog,Partial Fog,100,2012-11-19 00:00:00
1:20 AM,41.0,39.2,93,30.01,0.2,ESE,3.5,-,N/A,Fog,Patches of Fog,110,2012-11-19 00:20:00
1:50 AM,39.2,39.2,100,30.01,0.1,ESE,3.5,-,N/A,Fog,Patches of Fog,120,2012-11-19 00:50:00
2:20 AM,39.2,39.2,100,30.01,0.1,ESE,4.6,-,N/A,Fog,Fog,110,2012-11-19 01:20:00
2:50 AM,39.2,37.4,93,30.01,0.2,Variable,1.2,-,N/A,Fog,Fog,0,2012-11-19 01:50:00
3:20 AM,37.4,37.4,100,30.01,0.1,ESE,3.5,-,N/A,Fog,Fog,110,2012-11-19 02:20:00
3:50 AM,35.6,35.6,100,30.01,0.1,SSE,2.3,-,N/A,Fog,Light Fog,150,2012-11-19 02:50:00
4:00 AM,36,36,100,30.04,0,SSE,2.2,,,Rain,Light Drizzle,150,2012-11-19 03:00:00
4:20 AM,35.6,35.6,100,30.01,0.1,South,4.6,-,N/A,Fog,Light Fog,170,2012-11-19 03:20:00
4:50 AM,37.4,37.4,100,30.01,0.1,SE,4.6,-,N/A,Fog,Light Fog,140,2012-11-19 03:50:00
5:20 AM,37.4,37.4,100,30.01,0.1,SE,5.8,-,N/A,Fog,Fog,130,2012-11-19 04:20:00
5:50 AM,37.4,37.4,100,29.98,0.1,SE,6.9,-,N/A,Fog,Fog,130,2012-11-19 04:50:00
6:20 AM,39.2,37.4,93,29.98,0.7,SE,6.9,-,N/A,,Mostly Cloudy,140,2012-11-19 05:20:00
6:50 AM,39.2,37.4,93,29.98,1.2,ESE,6.9,-,N/A,,Mostly Cloudy,120,2012-11-19 05:50:00
7:00 AM,40,38,92,30.02,1,ESE,6.7,,,Fog,Light Fog,120,2012-11-19 06:00:00
7:20 AM,41.0,39.2,93,29.98,-9999.0,SE,6.9,-,N/A,,Mostly Cloudy,140,2012-11-19 06:20:00
7:50 AM,41.0,39.2,93,29.98,-9999.0,SE,6.9,-,N/A,,Mostly Cloudy,140,2012-11-19 06:50:00
8:20 AM,42.8,41.0,93,29.98,3.1,SE,5.8,-,N/A,,Mostly Cloudy,140,2012-11-19 07:20:00
8:50 AM,42.8,41.0,93,29.98,3.1,SE,6.9,-,N/A,,Mostly Cloudy,140,2012-11-19 07:50:00
9:20 AM,42.8,41.0,93,29.98,-9999.0,SE,5.8,-,N/A,,Mostly Cloudy,140,2012-11-19 08:20:00
9:50 AM,44.6,41.0,87,29.98,3.1,SSE,3.5,-,N/A,,Mostly Cloudy,150,2012-11-19 08:50:00
10:00 AM,44,42,89,30.02,3,SSE,4.5,,,,Mist,150,2012-11-19 09:00:00
10:20 AM,44.6,42.8,93,29.98,3.1,SE,3.5,-,N/A,,Mostly Cloudy,140,2012-11-19 09:20:00
10:50 AM,46.4,42.8,87,29.98,3.7,SE,4.6,-,N/A,,Mostly Cloudy,140,2012-11-19 09:50:00
11:20 AM,46.4,44.6,93,29.98,4.3,SSE,6.9,-,N/A,,Mostly Cloudy,150,2012-11-19 10:20:00
11:50 AM,48.2,44.6,87,29.98,5.6,SSE,9.2,-,N/A,,Scattered Clouds,150,2012-11-19 10:50:00
12:20 PM,51.8,46.4,82,29.98,6.2,SSE,8.1,-,N/A,,Scattered Clouds,160,2012-11-19 11:20:00
12:50 PM,53.6,48.2,82,29.95,6.2,South,11.5,-,N/A,,Partly Cloudy,170,2012-11-19 11:50:00
1:00 PM,54,48,72,29.97,9,South,11.2,,,,Scattered Clouds,170,2012-11-19 12:00:00
1:20 PM,53.6,48.2,82,29.95,6.2,South,9.2,-,N/A,,Scattered Clouds,190,2012-11-19 12:20:00
1:50 PM,53.6,48.2,82,29.95,6.2,South,11.5,-,N/A,,Partly Cloudy,190,2012-11-19 12:50:00
2:20 PM,55.4,48.2,77,29.98,6.2,South,8.1,-,N/A,,Mostly Cloudy,190,2012-11-19 13:20:00
2:50 PM,53.6,48.2,82,29.95,6.2,South,8.1,-,N/A,,Mostly Cloudy,180,2012-11-19 13:50:00
3:20 PM,55.4,48.2,77,29.98,6.2,South,8.1,-,N/A,,Scattered Clouds,180,2012-11-19 14:20:00
3:50 PM,53.6,48.2,82,29.98,6.2,South,9.2,-,N/A,,Partly Cloudy,170,2012-11-19 14:50:00
4:00 PM,54,47,72,29.98,9,South,8.9,,,,Scattered Clouds,170,2012-11-19 15:00:00
4:20 PM,51.8,46.4,82,29.98,6.2,SSE,8.1,-,N/A,,Partly Cloudy,160,2012-11-19 15:20:00
4:50 PM,51.8,46.4,82,29.98,-9999.0,South,9.2,-,N/A,,Clear,170,2012-11-19 15:50:00
5:20 PM,50.0,46.4,87,29.98,-9999.0,South,10.4,-,N/A,,Clear,170,2012-11-19 16:20:00
5:50 PM,50.0,44.6,82,29.98,5.6,South,10.4,-,N/A,,Unknown,180,2012-11-19 16:50:00
6:20 PM,48.2,44.6,87,29.98,5.0,SSE,11.5,-,N/A,,Unknown,160,2012-11-19 17:20:00
6:50 PM,48.2,44.6,87,29.98,5.0,SSE,10.4,-,N/A,,Unknown,160,2012-11-19 17:50:00
7:00 PM,49,45,81,30.01,5,SSE,11.2,,,,Clear,160,2012-11-19 18:00:00
7:20 PM,48.2,44.6,87,29.98,5.0,SSE,11.5,-,N/A,,Unknown,150,2012-11-19 18:20:00
7:50 PM,48.2,44.6,87,29.98,5.0,SSE,11.5,-,N/A,,Unknown,150,2012-11-19 18:50:00
8:20 PM,48.2,44.6,87,30.01,5.0,SSE,12.7,-,N/A,,Unknown,160,2012-11-19 19:20:00
8:50 PM,48.2,44.6,87,30.01,5.0,SSE,10.4,-,N/A,,Unknown,150,2012-11-19 19:50:00
9:20 PM,46.4,44.6,93,30.01,5.0,South,9.2,-,N/A,,Unknown,170,2012-11-19 20:20:00
9:50 PM,46.4,44.6,93,30.01,5.0,South,8.1,-,N/A,,Unknown,170,2012-11-19 20:50:00
10:00 PM,47,44,85,30.02,5,South,6.7,,,,Clear,170,2012-11-19 21:00:00
10:20 PM,46.4,42.8,87,30.01,5.0,South,6.9,-,N/A,,Unknown,180,2012-11-19 21:20:00
10:50 PM,46.4,42.8,87,30.01,5.0,South,6.9,-,N/A,,Unknown,170,2012-11-19 21:50:00
11:20 PM,46.4,42.8,87,30.01,5.0,South,8.1,-,N/A,,Unknown,170,2012-11-19 22:20:00
11:50 PM,46.4,42.8,87,30.01,5.0,SSE,9.2,-,N/A,,Unknown,160,2012-11-19 22:50:00